Time;durP1;ratioP1;P1;durP2;ratioP2;P2;SDS_P1;SDS_P2;PMS_P1;PMS_P2;Temp;Humidity;BMP_temperature;BMP_pressure;BME280_temperature;BME280_humidity;BME280_pressure;Samples;Min_cycle;Max_cycle;Signal;HPM_P1;HPM_P2
2023/04/16 00:01:31;;;;;;;18.95;3.72;;;;;;;;;;4888770;28;100223;-78
2023/04/16 00:03:57;;;;;;;15.38;3.47;;;;;;;;;;4889023;28;99334;-78
2023/04/16 00:06:24;;;;;;;10.75;3.67;;;;;;;;;;4887996;28;99507;-79
2023/04/16 00:08:51;;;;;;;15.82;4.50;;;;;;;;;;4889392;28;99958;-79
2023/04/16 00:11:17;;;;;;;13.63;3.60;;;;;;;;;;4891992;28;100079;-78
2023/04/16 00:13:44;;;;;;;10.02;3.58;;;;;;;;;;4888597;28;99918;-80
2023/04/16 00:16:10;;;;;;;14.18;4.10;;;;;;;;;;4889510;28;100335;-78
2023/04/16 00:18:36;;;;;;;10.45;4.10;;;;;;;;;;4888971;28;100842;-79
2023/04/16 00:21:03;;;;;;;12.82;4.30;;;;;;;;;;4889086;28;100659;-78
2023/04/16 00:23:29;;;;;;;14.15;4.65;;;;;;;;;;4888622;28;99059;-79
2023/04/16 00:25:58;;;;;;;20.75;4.97;;;;;;;;;;4888887;28;99407;-79
2023/04/16 00:28:26;;;;;;;19.60;5.25;;;;;;;;;;4888001;28;100022;-79
2023/04/16 00:30:53;;;;;;;18.58;3.78;;;;;;;;;;4890072;28;100431;-79
2023/04/16 00:33:19;;;;;;;17.17;4.65;;;;;;;;;;4911367;28;99059;-79
2023/04/16 00:35:46;;;;;;;17.02;5.90;;;;;;;;;;4907464;28;99066;-79
2023/04/16 00:38:13;;;;;;;13.73;5.65;;;;;;;;;;4892564;28;100239;-79
2023/04/16 00:40:39;;;;;;;17.83;4.65;;;;;;;;;;4889060;28;100012;-79
2023/04/16 00:43:06;;;;;;;19.33;5.63;;;;;;;;;;4888974;28;99013;-80
2023/04/16 00:45:32;;;;;;;26.27;6.60;;;;;;;;;;4889163;28;100181;-79
2023/04/16 00:47:59;;;;;;;12.52;4.38;;;;;;;;;;4892783;28;98568;-79
2023/04/16 00:50:26;;;;;;;21.95;5.10;;;;;;;;;;4891170;28;99869;-79
2023/04/16 00:52:52;;;;;;;12.20;4.55;;;;;;;;;;4888516;28;100650;-79
2023/04/16 00:55:20;;;;;;;15.48;5.22;;;;;;;;;;4892144;28;100315;-80
2023/04/16 00:57:46;;;;;;;16.25;6.63;;;;;;;;;;4888146;28;100573;-80
2023/04/16 01:00:13;;;;;;;22.38;7.13;;;;;;;;;;4889522;28;102014;-80
2023/04/16 01:02:39;;;;;;;26.33;5.88;;;;;;;;;;4885468;28;102047;-79
2023/04/16 01:05:07;;;;;;;27.40;6.25;;;;;;;;;;4886869;28;99561;-79
2023/04/16 01:07:33;;;;;;;15.82;5.97;;;;;;;;;;4887454;28;101857;-79
2023/04/16 01:10:00;;;;;;;18.23;6.07;;;;;;;;;;4906677;28;100104;-79
2023/04/16 01:12:26;;;;;;;17.65;5.93;;;;;;;;;;4889932;28;100271;-79
2023/04/16 01:14:52;;;;;;;17.67;5.88;;;;;;;;;;4888740;28;98909;-79
2023/04/16 01:17:19;;;;;;;26.40;6.20;;;;;;;;;;4890437;28;99368;-79
2023/04/16 01:19:45;;;;;;;22.30;5.90;;;;;;;;;;4888623;28;99981;-79
2023/04/16 01:22:12;;;;;;;22.88;7.88;;;;;;;;;;4888346;28;99994;-78
2023/04/16 01:24:39;;;;;;;17.25;6.85;;;;;;;;;;4885746;28;100331;-79
2023/04/16 01:27:08;;;;;;;23.88;6.65;;;;;;;;;;4891862;28;100063;-77
2023/04/16 01:29:35;;;;;;;21.08;6.40;;;;;;;;;;4886405;28;101346;-78
2023/04/16 01:32:01;;;;;;;26.17;6.70;;;;;;;;;;4902480;28;102144;-78
2023/04/16 01:34:32;;;;;;;21.55;5.63;;;;;;;;;;4888689;28;100319;-77
2023/04/16 01:36:59;;;;;;;24.75;7.28;;;;;;;;;;4889972;28;99274;-77
2023/04/16 01:39:26;;;;;;;23.50;7.20;;;;;;;;;;4902485;28;100118;-77
2023/04/16 01:41:52;;;;;;;19.30;7.30;;;;;;;;;;4907082;28;99857;-78
2023/04/16 01:44:19;;;;;;;22.20;6.43;;;;;;;;;;4898840;28;100131;-77
2023/04/16 01:46:45;;;;;;;9.32;4.95;;;;;;;;;;4886436;28;100331;-79
2023/04/16 01:49:11;;;;;;;28.95;7.32;;;;;;;;;;4888429;28;99382;-78
2023/04/16 01:51:38;;;;;;;24.23;7.88;;;;;;;;;;4887724;28;99330;-77
2023/04/16 01:54:04;;;;;;;21.77;6.85;;;;;;;;;;4887776;28;99434;-77
2023/04/16 01:56:31;;;;;;;17.05;7.15;;;;;;;;;;4888315;28;99159;-77
2023/04/16 01:58:57;;;;;;;27.08;7.82;;;;;;;;;;4889864;28;100875;-77
2023/04/16 02:01:28;;;;;;;21.13;9.63;;;;;;;;;;4886443;28;99500;-77
2023/04/16 02:03:56;;;;;;;25.98;8.52;;;;;;;;;;4886932;28;101616;-77
2023/04/16 02:06:22;;;;;;;27.45;9.55;;;;;;;;;;4884959;28;102031;-78
2023/04/16 02:08:49;;;;;;;22.95;8.80;;;;;;;;;;4888032;28;100925;-77
2023/04/16 02:11:15;;;;;;;33.47;9.43;;;;;;;;;;4886462;28;100986;-79
2023/04/16 02:13:42;;;;;;;15.23;7.88;;;;;;;;;;4889492;28;98723;-79
2023/04/16 02:16:08;;;;;;;31.17;10.38;;;;;;;;;;4890184;28;100972;-79
2023/04/16 02:18:46;;;;;;;28.83;9.18;;;;;;;;;;4890530;28;100135;-79
2023/04/16 02:21:14;;;;;;;29.48;9.68;;;;;;;;;;4892448;28;100691;-78
2023/04/16 02:23:41;;;;;;;24.60;9.68;;;;;;;;;;4906247;28;100758;-77
2023/04/16 02:26:08;;;;;;;29.67;9.18;;;;;;;;;;4886459;28;100655;-78
2023/04/16 02:28:35;;;;;;;26.55;10.93;;;;;;;;;;4869862;28;101477;-78
2023/04/16 02:31:02;;;;;;;21.20;8.68;;;;;;;;;;4885869;28;100405;-78
2023/04/16 02:33:36;;;;;;;25.23;9.15;;;;;;;;;;4870427;28;99845;-78
2023/04/16 02:36:02;;;;;;;22.85;10.95;;;;;;;;;;4877419;28;99008;-78
2023/04/16 02:38:29;;;;;;;25.75;10.40;;;;;;;;;;4890739;28;99262;-78
2023/04/16 02:40:55;;;;;;;24.30;10.02;;;;;;;;;;4890037;28;98955;-79
2023/04/16 02:43:22;;;;;;;26.77;11.30;;;;;;;;;;4908422;28;100135;-78
2023/04/16 02:45:48;;;;;;;22.35;8.85;;;;;;;;;;4890761;28;100033;-78
2023/04/16 02:48:15;;;;;;;25.98;9.98;;;;;;;;;;4889855;28;100317;-78
2023/04/16 02:50:41;;;;;;;27.13;11.05;;;;;;;;;;4889218;28;102038;-78
2023/04/16 02:53:09;;;;;;;29.45;10.70;;;;;;;;;;4882909;28;98856;-78
2023/04/16 02:55:35;;;;;;;31.15;13.60;;;;;;;;;;4868374;28;101368;-78
2023/04/16 02:58:02;;;;;;;28.45;11.95;;;;;;;;;;4870411;28;101706;-78
2023/04/16 03:00:28;;;;;;;25.92;11.18;;;;;;;;;;4885822;28;101530;-78
2023/04/16 03:02:55;;;;;;;35.13;12.48;;;;;;;;;;4890430;28;101431;-78
2023/04/16 03:05:22;;;;;;;28.42;11.38;;;;;;;;;;4907727;28;101580;-78
2023/04/16 03:07:55;;;;;;;33.47;13.30;;;;;;;;;;4889850;28;99846;-78
2023/04/16 03:10:22;;;;;;;22.27;11.25;;;;;;;;;;4888263;28;99170;-79
2023/04/16 03:12:48;;;;;;;30.48;12.40;;;;;;;;;;4904411;28;100848;-79
2023/04/16 03:15:15;;;;;;;26.80;14.10;;;;;;;;;;4890162;28;99499;-78
2023/04/16 03:17:41;;;;;;;27.90;14.80;;;;;;;;;;4889219;28;99172;-78
2023/04/16 03:20:09;;;;;;;35.30;13.23;;;;;;;;;;4889480;28;99777;-77
2023/04/16 03:22:35;;;;;;;29.02;13.30;;;;;;;;;;4887969;28;100868;-78
2023/04/16 03:25:02;;;;;;;29.42;13.75;;;;;;;;;;4889159;28;99451;-78
2023/04/16 03:27:29;;;;;;;32.47;12.85;;;;;;;;;;4887908;28;98931;-78
2023/04/16 03:29:56;;;;;;;24.42;11.85;;;;;;;;;;4890070;28;99997;-77
2023/04/16 03:32:23;;;;;;;29.95;12.15;;;;;;;;;;4887537;28;101343;-77
2023/04/16 03:34:50;;;;;;;25.13;13.82;;;;;;;;;;4889949;28;101643;-78
2023/04/16 03:37:16;;;;;;;27.17;11.35;;;;;;;;;;4891552;28;98701;-78
2023/04/16 03:39:42;;;;;;;33.42;13.77;;;;;;;;;;4894758;28;99185;-77
2023/04/16 03:42:10;;;;;;;23.50;10.85;;;;;;;;;;4893494;28;101123;-78
2023/04/16 03:44:36;;;;;;;15.82;6.85;;;;;;;;;;4899758;28;99762;-77
2023/04/16 03:47:03;;;;;;;22.05;10.98;;;;;;;;;;4899354;28;101845;-78
2023/04/16 03:49:29;;;;;;;29.95;9.07;;;;;;;;;;4892797;28;99484;-77
2023/04/16 03:51:56;;;;;;;27.02;11.65;;;;;;;;;;4882416;28;100377;-77
2023/04/16 03:54:24;;;;;;;22.95;11.00;;;;;;;;;;4889185;28;99858;-77
2023/04/16 03:57:01;;;;;;;27.05;12.50;;;;;;;;;;4887774;28;101422;-79
2023/04/16 03:59:27;;;;;;;31.08;12.88;;;;;;;;;;4902647;28;101457;-79
2023/04/16 04:01:54;;;;;;;27.73;12.80;;;;;;;;;;4889557;28;98265;-78
2023/04/16 04:04:20;;;;;;;24.27;11.85;;;;;;;;;;4887579;28;101380;-79
2023/04/16 04:06:47;;;;;;;27.55;12.52;;;;;;;;;;4888763;28;99217;-77
2023/04/16 04:09:15;;;;;;;25.48;12.88;;;;;;;;;;4890436;28;101843;-78
2023/04/16 04:11:42;;;;;;;35.47;13.73;;;;;;;;;;4888552;28;98767;-77
2023/04/16 04:14:08;;;;;;;26.08;12.55;;;;;;;;;;4888214;28;100396;-79
2023/04/16 04:16:34;;;;;;;23.15;11.65;;;;;;;;;;4888340;28;100165;-79
2023/04/16 04:19:01;;;;;;;25.65;11.85;;;;;;;;;;4888235;28;99968;-78
2023/04/16 04:21:28;;;;;;;19.92;11.00;;;;;;;;;;4886406;28;100205;-78
2023/04/16 04:23:54;;;;;;;25.58;12.52;;;;;;;;;;4887581;28;101958;-78
2023/04/16 04:26:21;;;;;;;27.60;11.75;;;;;;;;;;4887322;28;101708;-79
2023/04/16 04:28:48;;;;;;;23.65;12.05;;;;;;;;;;4888730;28;99337;-78
2023/04/16 04:31:16;;;;;;;22.63;11.73;;;;;;;;;;4890730;28;100550;-79
2023/04/16 04:33:43;;;;;;;27.38;12.40;;;;;;;;;;4886756;28;101977;-79
2023/04/16 04:36:09;;;;;;;27.95;13.45;;;;;;;;;;4888524;28;100002;-79
2023/04/16 04:38:35;;;;;;;34.33;13.40;;;;;;;;;;4888078;28;99928;-78
2023/04/16 04:41:02;;;;;;;34.10;13.40;;;;;;;;;;4886226;28;100669;-78
2023/04/16 04:43:33;;;;;;;32.65;12.18;;;;;;;;;;4882568;28;101942;-78
2023/04/16 04:46:00;;;;;;;32.33;14.07;;;;;;;;;;4882645;28;101460;-78
2023/04/16 04:48:28;;;;;;;31.75;13.85;;;;;;;;;;4885740;28;100352;-79
2023/04/16 04:50:54;;;;;;;35.20;13.25;;;;;;;;;;4887131;28;100792;-78
2023/04/16 04:53:22;;;;;;;32.85;13.60;;;;;;;;;;4888889;28;101687;-77
2023/04/16 04:55:48;;;;;;;30.08;12.68;;;;;;;;;;4887739;28;99231;-78
2023/04/16 04:58:20;;;;;;;27.77;12.23;;;;;;;;;;4885219;28;100312;-77
2023/04/16 05:00:47;;;;;;;32.10;12.50;;;;;;;;;;4887006;28;102679;-79
2023/04/16 05:03:17;;;;;;;30.00;11.85;;;;;;;;;;4886091;28;100326;-78
2023/04/16 05:05:44;;;;;;;25.70;12.93;;;;;;;;;;4888141;28;100087;-77
2023/04/16 05:08:10;;;;;;;35.38;13.45;;;;;;;;;;4887989;28;100068;-78
2023/04/16 05:10:37;;;;;;;28.13;10.60;;;;;;;;;;4886399;28;100632;-77
2023/04/16 05:13:03;;;;;;;31.52;13.65;;;;;;;;;;4887813;28;99045;-79
2023/04/16 05:15:29;;;;;;;33.75;13.68;;;;;;;;;;4891220;28;101833;-79
2023/04/16 05:17:56;;;;;;;35.50;13.73;;;;;;;;;;4887674;28;99128;-79
2023/04/16 05:20:23;;;;;;;26.20;11.15;;;;;;;;;;4887647;28;99189;-80
2023/04/16 05:22:50;;;;;;;33.15;12.27;;;;;;;;;;4886219;28;102401;-78
2023/04/16 05:25:16;;;;;;;19.30;8.23;;;;;;;;;;4887741;28;100319;-76
2023/04/16 05:27:42;;;;;;;31.75;14.15;;;;;;;;;;4888171;28;99115;-77
2023/04/16 05:30:11;;;;;;;33.20;13.57;;;;;;;;;;4887852;28;99286;-79
2023/04/16 05:32:38;;;;;;;25.27;12.82;;;;;;;;;;4887099;28;100125;-79
2023/04/16 05:35:05;;;;;;;24.08;11.60;;;;;;;;;;4887302;28;99220;-79
2023/04/16 05:37:31;;;;;;;18.25;9.43;;;;;;;;;;4890288;28;100192;-79
2023/04/16 05:39:57;;;;;;;38.08;13.57;;;;;;;;;;4887859;28;100000;-79
2023/04/16 05:42:24;;;;;;;14.95;9.52;;;;;;;;;;4887823;28;99696;-79
2023/04/16 05:44:51;;;;;;;18.58;10.75;;;;;;;;;;4885724;28;99094;-78
2023/04/16 05:47:18;;;;;;;29.00;11.90;;;;;;;;;;4886872;28;100102;-79
2023/04/16 05:49:44;;;;;;;35.70;13.05;;;;;;;;;;4887178;28;99634;-79
2023/04/16 05:52:10;;;;;;;30.92;10.90;;;;;;;;;;4888754;28;99056;-78
2023/04/16 05:54:37;;;;;;;32.90;11.48;;;;;;;;;;4887641;28;99378;-79
2023/04/16 05:57:03;;;;;;;33.50;12.23;;;;;;;;;;4893613;28;99183;-78
2023/04/16 05:59:30;;;;;;;29.13;12.90;;;;;;;;;;4889883;28;99093;-79
2023/04/16 06:01:56;;;;;;;22.98;10.68;;;;;;;;;;4890827;28;100092;-78
2023/04/16 06:04:23;;;;;;;30.80;14.07;;;;;;;;;;4891151;28;99706;-78
2023/04/16 06:06:49;;;;;;;33.60;13.32;;;;;;;;;;4889960;28;98973;-79
2023/04/16 06:09:17;;;;;;;33.53;14.60;;;;;;;;;;4890269;28;100422;-79
2023/04/16 06:11:43;;;;;;;29.55;14.10;;;;;;;;;;4890100;28;99923;-78
2023/04/16 06:14:10;;;;;;;33.88;13.98;;;;;;;;;;4889810;28;101447;-78
2023/04/16 06:16:36;;;;;;;34.88;15.15;;;;;;;;;;4889961;28;100401;-78
2023/04/16 06:19:02;;;;;;;31.40;14.55;;;;;;;;;;4892674;28;99975;-78
2023/04/16 06:21:30;;;;;;;40.15;15.95;;;;;;;;;;4890088;28;99464;-78
2023/04/16 06:23:56;;;;;;;33.53;14.77;;;;;;;;;;4890520;28;100010;-78
2023/04/16 06:26:23;;;;;;;29.42;14.73;;;;;;;;;;4889684;28;100214;-78
2023/04/16 06:28:49;;;;;;;38.25;15.07;;;;;;;;;;4890889;28;99626;-77
2023/04/16 06:31:18;;;;;;;24.98;15.02;;;;;;;;;;4889916;28;100206;-78
2023/04/16 06:33:44;;;;;;;31.33;16.10;;;;;;;;;;4889610;28;98961;-78
2023/04/16 06:36:11;;;;;;;24.63;12.25;;;;;;;;;;4890172;28;101334;-78
2023/04/16 06:38:37;;;;;;;39.33;15.63;;;;;;;;;;4890189;28;99198;-78
2023/04/16 06:41:04;;;;;;;29.83;14.20;;;;;;;;;;4892941;28;100033;-77
2023/04/16 06:43:32;;;;;;;36.08;16.77;;;;;;;;;;4890044;28;100073;-78
2023/04/16 06:45:58;;;;;;;31.25;16.88;;;;;;;;;;4890168;28;100091;-77
2023/04/16 06:48:25;;;;;;;32.05;16.05;;;;;;;;;;4889303;28;100430;-78
2023/04/16 06:50:52;;;;;;;31.25;16.05;;;;;;;;;;4890046;28;100445;-78
2023/04/16 06:53:18;;;;;;;24.60;13.05;;;;;;;;;;4889761;28;99428;-78
2023/04/16 06:55:44;;;;;;;33.92;17.08;;;;;;;;;;4889224;28;100280;-78
2023/04/16 06:58:11;;;;;;;36.95;17.50;;;;;;;;;;4888214;28;99948;-78
2023/04/16 07:00:37;;;;;;;34.55;18.33;;;;;;;;;;4886987;28;100554;-78
2023/04/16 07:03:04;;;;;;;38.95;19.40;;;;;;;;;;4891015;28;100085;-78
2023/04/16 07:05:31;;;;;;;32.13;18.40;;;;;;;;;;4885531;28;100542;-77
2023/04/16 07:07:57;;;;;;;38.65;19.23;;;;;;;;;;4887859;28;100386;-78
2023/04/16 07:10:24;;;;;;;41.05;19.33;;;;;;;;;;4888433;28;99346;-78
2023/04/16 07:12:50;;;;;;;32.90;20.05;;;;;;;;;;4889341;28;100248;-78
2023/04/16 07:15:17;;;;;;;41.53;20.33;;;;;;;;;;4888763;28;100462;-78
2023/04/16 07:17:43;;;;;;;30.88;18.13;;;;;;;;;;4890168;28;100246;-78
2023/04/16 07:20:10;;;;;;;33.83;17.00;;;;;;;;;;4889902;28;99435;-77
2023/04/16 07:22:36;;;;;;;31.08;17.88;;;;;;;;;;4886702;28;99175;-77
2023/04/16 07:25:03;;;;;;;32.15;18.00;;;;;;;;;;4890972;28;99303;-77
2023/04/16 07:27:29;;;;;;;25.70;16.65;;;;;;;;;;4887023;28;100451;-77
2023/04/16 07:29:56;;;;;;;27.20;16.52;;;;;;;;;;4880919;28;98969;-76
2023/04/16 07:32:22;;;;;;;27.60;15.50;;;;;;;;;;4887479;28;99769;-78
2023/04/16 07:34:49;;;;;;;30.90;16.13;;;;;;;;;;4886106;28;100254;-78
2023/04/16 07:37:17;;;;;;;26.33;16.33;;;;;;;;;;4882290;28;100387;-80
2023/04/16 07:39:43;;;;;;;27.55;15.15;;;;;;;;;;4888011;28;99568;-79
2023/04/16 07:42:10;;;;;;;26.65;14.80;;;;;;;;;;4884182;28;99819;-78
2023/04/16 07:44:36;;;;;;;22.15;12.65;;;;;;;;;;4887428;28;99204;-78
2023/04/16 07:47:03;;;;;;;32.28;15.85;;;;;;;;;;4893286;28;100036;-78
2023/04/16 07:49:31;;;;;;;27.63;14.75;;;;;;;;;;4889379;28;99970;-80
2023/04/16 07:51:57;;;;;;;25.35;15.82;;;;;;;;;;4887228;28;99937;-77
2023/04/16 07:54:24;;;;;;;23.77;14.10;;;;;;;;;;4882648;28;100376;-77
2023/04/16 07:56:52;;;;;;;23.83;15.45;;;;;;;;;;4887474;28;100458;-77
2023/04/16 07:59:18;;;;;;;23.00;13.55;;;;;;;;;;4887330;28;100711;-78
2023/04/16 08:01:49;;;;;;;19.15;11.95;;;;;;;;;;4886816;28;100087;-77
2023/04/16 08:04:21;;;;;;;18.15;10.98;;;;;;;;;;4888810;28;99328;-78
2023/04/16 08:06:49;;;;;;;14.63;11.88;;;;;;;;;;4891908;28;100228;-77
2023/04/16 08:09:15;;;;;;;21.17;12.35;;;;;;;;;;4879614;28;99457;-78
2023/04/16 08:11:41;;;;;;;19.17;11.68;;;;;;;;;;4886476;28;99926;-77
2023/04/16 08:14:08;;;;;;;20.33;11.20;;;;;;;;;;4884971;28;100077;-77
2023/04/16 08:16:34;;;;;;;14.20;8.80;;;;;;;;;;4886901;28;100052;-78
2023/04/16 08:19:01;;;;;;;19.42;10.38;;;;;;;;;;4886888;28;99141;-77
2023/04/16 08:21:28;;;;;;;16.00;9.68;;;;;;;;;;4889035;28;100349;-77
2023/04/16 08:23:54;;;;;;;18.30;8.63;;;;;;;;;;4889743;28;100246;-76
2023/04/16 08:26:21;;;;;;;14.82;9.02;;;;;;;;;;4884192;28;100278;-77
2023/04/16 08:28:47;;;;;;;12.60;8.95;;;;;;;;;;4889438;28;100528;-76
2023/04/16 08:31:15;;;;;;;12.77;9.57;;;;;;;;;;4891128;28;99907;-76
2023/04/16 08:33:42;;;;;;;10.20;8.65;;;;;;;;;;4887938;28;100280;-78
2023/04/16 08:36:08;;;;;;;13.40;8.73;;;;;;;;;;4889655;28;99929;-76
2023/04/16 08:38:35;;;;;;;35.05;27.35;;;;;;;;;;4889754;28;100279;-76
2023/04/16 08:41:02;;;;;;;16.17;11.70;;;;;;;;;;4891742;28;100442;-78
2023/04/16 08:43:32;;;;;;;11.63;8.07;;;;;;;;;;4890181;28;99034;-78
2023/04/16 08:45:59;;;;;;;11.70;6.43;;;;;;;;;;4892896;28;99237;-78
2023/04/16 08:48:28;;;;;;;8.75;6.68;;;;;;;;;;4895333;28;99674;-78
2023/04/16 08:50:54;;;;;;;11.82;7.38;;;;;;;;;;4891493;28;99886;-77
2023/04/16 08:53:27;;;;;;;8.82;6.82;;;;;;;;;;4889138;28;99986;-77
2023/04/16 08:55:56;;;;;;;11.05;7.15;;;;;;;;;;4887067;28;100112;-77
2023/04/16 08:58:24;;;;;;;9.65;7.05;;;;;;;;;;4890172;28;98975;-77
2023/04/16 09:00:51;;;;;;;6.78;6.22;;;;;;;;;;4886805;28;100339;-77
2023/04/16 09:03:20;;;;;;;8.40;6.82;;;;;;;;;;4886799;28;99369;-77
2023/04/16 09:05:48;;;;;;;10.88;6.57;;;;;;;;;;4888119;28;100920;-77
2023/04/16 09:08:14;;;;;;;9.65;6.85;;;;;;;;;;4886554;28;100152;-77
2023/04/16 09:10:41;;;;;;;14.38;6.78;;;;;;;;;;4887338;28;100500;-77
2023/04/16 09:13:10;;;;;;;8.38;6.38;;;;;;;;;;4889878;28;100096;-77
2023/04/16 09:15:37;;;;;;;8.63;7.10;;;;;;;;;;4880901;28;99282;-77
2023/04/16 09:18:04;;;;;;;9.20;6.85;;;;;;;;;;4887157;28;99932;-77
2023/04/16 09:20:31;;;;;;;5.75;5.28;;;;;;;;;;4880707;28;98625;-77
2023/04/16 09:22:57;;;;;;;7.15;6.22;;;;;;;;;;4887003;28;99980;-77
2023/04/16 09:25:24;;;;;;;10.35;7.63;;;;;;;;;;4887308;28;100050;-78
2023/04/16 09:27:50;;;;;;;9.43;7.50;;;;;;;;;;4886074;28;101078;-77
2023/04/16 09:30:22;;;;;;;12.55;7.50;;;;;;;;;;4887344;28;100783;-77
2023/04/16 09:32:49;;;;;;;8.52;7.63;;;;;;;;;;4890091;28;99217;-77
2023/04/16 09:35:19;;;;;;;11.00;7.07;;;;;;;;;;4897654;28;100229;-78
2023/04/16 09:37:55;;;;;;;11.90;7.22;;;;;;;;;;4895042;28;99096;-77
2023/04/16 09:40:26;;;;;;;9.90;7.55;;;;;;;;;;4895814;28;100261;-77
2023/04/16 09:42:55;;;;;;;12.10;7.78;;;;;;;;;;4895886;28;100384;-77
2023/04/16 09:45:22;;;;;;;15.15;8.70;;;;;;;;;;4899201;28;100539;-78
2023/04/16 09:47:48;;;;;;;15.35;9.10;;;;;;;;;;4898089;28;100826;-78
2023/04/16 09:50:15;;;;;;;12.55;9.32;;;;;;;;;;4899752;28;100097;-78
2023/04/16 09:52:49;;;;;;;18.48;9.80;;;;;;;;;;4894359;28;100128;-78
2023/04/16 09:55:15;;;;;;;13.00;8.93;;;;;;;;;;4896631;28;100504;-78
2023/04/16 09:57:42;;;;;;;19.23;9.48;;;;;;;;;;4896719;28;99784;-78
2023/04/16 10:00:09;;;;;;;15.63;8.25;;;;;;;;;;4893278;28;100264;-78
2023/04/16 10:02:39;;;;;;;12.27;8.45;;;;;;;;;;4891590;28;99844;-77
2023/04/16 10:05:06;;;;;;;16.17;9.32;;;;;;;;;;4893477;28;99779;-78
2023/04/16 10:07:33;;;;;;;11.48;8.90;;;;;;;;;;4892156;28;99235;-78
2023/04/16 10:09:59;;;;;;;23.25;11.55;;;;;;;;;;4893002;28;99248;-77
2023/04/16 10:12:28;;;;;;;24.35;12.40;;;;;;;;;;4892722;28;98644;-78
2023/04/16 10:14:54;;;;;;;21.98;12.05;;;;;;;;;;4899307;28;99939;-78
2023/04/16 10:17:22;;;;;;;23.92;12.82;;;;;;;;;;4896057;28;100874;-78
2023/04/16 10:19:49;;;;;;;18.70;10.90;;;;;;;;;;4892604;28;100311;-77
2023/04/16 10:22:16;;;;;;;22.98;12.98;;;;;;;;;;4893201;28;100136;-78
2023/04/16 10:24:42;;;;;;;20.13;10.55;;;;;;;;;;4893453;28;98578;-78
2023/04/16 10:27:09;;;;;;;30.00;13.32;;;;;;;;;;4886649;28;100369;-78
2023/04/16 10:29:36;;;;;;;28.25;12.15;;;;;;;;;;4892776;28;98584;-78
2023/04/16 10:32:02;;;;;;;28.35;12.32;;;;;;;;;;4894146;28;100051;-77
2023/04/16 10:34:30;;;;;;;26.90;11.57;;;;;;;;;;4892950;28;99763;-78
2023/04/16 10:36:56;;;;;;;20.73;11.05;;;;;;;;;;4892978;28;100143;-78
2023/04/16 10:39:23;;;;;;;18.38;11.20;;;;;;;;;;4895647;28;100315;-78
2023/04/16 10:42:04;;;;;;;18.80;11.30;;;;;;;;;;4891092;28;100822;-78
2023/04/16 10:44:31;;;;;;;18.45;10.13;;;;;;;;;;4889863;28;99729;-79
2023/04/16 10:46:58;;;;;;;25.05;12.50;;;;;;;;;;4888386;28;100237;-78
2023/04/16 10:49:25;;;;;;;16.83;10.98;;;;;;;;;;4886969;28;100325;-79
2023/04/16 10:51:55;;;;;;;36.47;20.88;;;;;;;;;;4889077;28;101475;-78
2023/04/16 10:54:25;;;;;;;22.20;13.77;;;;;;;;;;4882271;28;99861;-77
2023/04/16 10:56:52;;;;;;;24.90;12.50;;;;;;;;;;4884169;28;100533;-77
2023/04/16 10:59:19;;;;;;;17.35;9.80;;;;;;;;;;4890449;28;99275;-80
2023/04/16 11:01:47;;;;;;;19.73;11.23;;;;;;;;;;4887388;28;100941;-78
2023/04/16 11:04:20;;;;;;;19.80;10.85;;;;;;;;;;4888439;28;100250;-78
2023/04/16 11:07:05;;;;;;;12.85;9.75;;;;;;;;;;4887404;28;101519;-78
2023/04/16 11:09:41;;;;;;;19.45;10.73;;;;;;;;;;4882170;28;100266;-78
2023/04/16 11:12:10;;;;;;;15.18;9.55;;;;;;;;;;4889279;28;100290;-78
2023/04/16 11:14:37;;;;;;;13.02;9.45;;;;;;;;;;4884287;28;100410;-77
2023/04/16 11:17:04;;;;;;;19.90;12.85;;;;;;;;;;4887039;28;100247;-78
2023/04/16 11:19:30;;;;;;;19.95;10.50;;;;;;;;;;4876528;28;99165;-78
2023/04/16 11:21:57;;;;;;;21.35;11.20;;;;;;;;;;4887900;28;99359;-78
2023/04/16 11:24:23;;;;;;;17.70;12.23;;;;;;;;;;4888489;28;99767;-77
2023/04/16 11:26:51;;;;;;;29.85;17.25;;;;;;;;;;4888500;28;99122;-78
2023/04/16 11:29:18;;;;;;;19.83;12.88;;;;;;;;;;4888146;28;99886;-77
2023/04/16 11:31:51;;;;;;;22.58;13.25;;;;;;;;;;4889104;28;99924;-77
2023/04/16 11:34:18;;;;;;;22.77;11.02;;;;;;;;;;4888562;28;99601;-76
2023/04/16 11:36:44;;;;;;;21.38;12.02;;;;;;;;;;4888724;28;100200;-78
2023/04/16 11:39:11;;;;;;;50.03;33.90;;;;;;;;;;4887776;28;100347;-76
2023/04/16 11:41:41;;;;;;;21.17;14.52;;;;;;;;;;4885588;28;100440;-76
2023/04/16 11:44:17;;;;;;;22.77;14.38;;;;;;;;;;4878810;28;100270;-79
2023/04/16 11:46:43;;;;;;;23.70;12.88;;;;;;;;;;4892804;28;99375;-77
2023/04/16 11:49:11;;;;;;;18.40;12.93;;;;;;;;;;4889752;28;99516;-76
2023/04/16 11:51:43;;;;;;;26.77;13.85;;;;;;;;;;4887940;28;98667;-77
2023/04/16 11:54:20;;;;;;;35.50;18.65;;;;;;;;;;4887664;28;99740;-77
2023/04/16 11:56:48;;;;;;;28.52;15.77;;;;;;;;;;4888852;28;100709;-77
2023/04/16 11:59:16;;;;;;;30.75;15.07;;;;;;;;;;4890403;28;99907;-76
2023/04/16 12:01:50;;;;;;;26.15;17.33;;;;;;;;;;4889119;28;100646;-76
2023/04/16 12:04:21;;;;;;;24.65;16.85;;;;;;;;;;4889019;28;98946;-78
2023/04/16 12:07:23;;;;;;;29.98;15.50;;;;;;;;;;4893076;28;99202;-77
2023/04/16 12:10:06;;;;;;;25.63;14.02;;;;;;;;;;4887470;28;99468;-77
2023/04/16 12:12:35;;;;;;;28.48;15.45;;;;;;;;;;4888069;28;99574;-78
2023/04/16 12:15:04;;;;;;;22.80;10.75;;;;;;;;;;4890220;28;98827;-77
2023/04/16 12:17:33;;;;;;;19.23;11.55;;;;;;;;;;4889414;28;98952;-78
2023/04/16 12:20:05;;;;;;;26.17;14.88;;;;;;;;;;4882136;28;98860;-78
2023/04/16 12:22:51;;;;;;;19.25;11.70;;;;;;;;;;4887208;28;100936;-78
2023/04/16 12:25:24;;;;;;;13.50;10.63;;;;;;;;;;4887126;28;100488;-78
2023/04/16 12:27:51;;;;;;;;;;;;;;;;;;4886791;28;98917;-78
2023/04/16 12:30:21;;;;;;;20.65;10.27;;;;;;;;;;4892324;28;120232;-78
2023/04/16 12:32:48;;;;;;;22.60;11.73;;;;;;;;;;4888526;28;99927;-78
2023/04/16 12:35:30;;;;;;;17.48;11.55;;;;;;;;;;4890148;28;100376;-78
2023/04/16 12:38:02;;;;;;;17.60;10.13;;;;;;;;;;4887994;28;98851;-78
2023/04/16 12:40:32;;;;;;;20.52;11.45;;;;;;;;;;4889242;28;99002;-77
2023/04/16 12:43:02;;;;;;;14.88;10.00;;;;;;;;;;4885965;28;99343;-77
2023/04/16 12:45:29;;;;;;;17.75;10.18;;;;;;;;;;4888716;28;98951;-77
2023/04/16 12:47:56;;;;;;;22.75;9.27;;;;;;;;;;4887190;28;99655;-78
2023/04/16 12:50:28;;;;;;;;;;;;;;;;;;4888231;28;100654;-77
2023/04/16 12:52:56;;;;;;;15.80;10.35;;;;;;;;;;4889567;28;98871;-78
2023/04/16 12:55:25;;;;;;;16.95;10.90;;;;;;;;;;4883188;28;101703;-79
2023/04/16 12:57:53;;;;;;;21.55;10.80;;;;;;;;;;4877240;28;99855;-78
2023/04/16 13:00:23;;;;;;;21.50;10.87;;;;;;;;;;4882467;28;99087;-79
2023/04/16 13:02:52;;;;;;;23.65;11.45;;;;;;;;;;4887205;28;100054;-78
2023/04/16 13:05:20;;;;;;;24.85;11.55;;;;;;;;;;4901413;28;99735;-77
2023/04/16 13:07:48;;;;;;;25.00;12.23;;;;;;;;;;4887749;28;99244;-78
2023/04/16 13:10:15;;;;;;;18.50;11.20;;;;;;;;;;4887892;28;100362;-78
2023/04/16 13:12:42;;;;;;;21.85;12.73;;;;;;;;;;4887992;28;99294;-77
2023/04/16 13:15:11;;;;;;;24.42;11.88;;;;;;;;;;4889151;28;99799;-78
2023/04/16 13:17:39;;;;;;;22.67;12.75;;;;;;;;;;4888450;28;100076;-78
2023/04/16 13:20:07;;;;;;;27.95;12.80;;;;;;;;;;4888463;28;99352;-78
2023/04/16 13:22:34;;;;;;;33.85;14.13;;;;;;;;;;4901940;28;99828;-78
2023/04/16 13:25:01;;;;;;;25.85;11.93;;;;;;;;;;4886648;28;100032;-79
2023/04/16 13:27:27;;;;;;;26.25;12.02;;;;;;;;;;4883199;28;99618;-79
2023/04/16 13:29:54;;;;;;;22.23;12.20;;;;;;;;;;4886403;28;99989;-76
2023/04/16 13:32:20;;;;;;;20.70;12.40;;;;;;;;;;4885655;28;100227;-79
2023/04/16 13:34:46;;;;;;;24.48;12.77;;;;;;;;;;4887791;28;99222;-79
2023/04/16 13:37:13;;;;;;;19.08;11.27;;;;;;;;;;4889515;28;100886;-80
2023/04/16 13:39:39;;;;;;;17.88;9.73;;;;;;;;;;4887197;28;100757;-80
2023/04/16 13:42:06;;;;;;;24.85;11.52;;;;;;;;;;4882779;28;100488;-81
2023/04/16 13:44:34;;;;;;;19.05;10.35;;;;;;;;;;4877867;28;99281;-81
2023/04/16 13:47:00;;;;;;;16.38;10.00;;;;;;;;;;4885600;28;100293;-80
2023/04/16 13:49:27;;;;;;;20.35;10.85;;;;;;;;;;4881828;28;100857;-80
2023/04/16 13:51:53;;;;;;;26.23;10.32;;;;;;;;;;4886341;28;100535;-80
2023/04/16 13:54:19;;;;;;;22.70;10.52;;;;;;;;;;4887058;28;100000;-80
2023/04/16 13:56:46;;;;;;;22.98;11.13;;;;;;;;;;4886884;28;100279;-80
2023/04/16 13:59:14;;;;;;;20.75;10.23;;;;;;;;;;4890939;28;99978;-80
2023/04/16 14:01:40;;;;;;;14.43;9.55;;;;;;;;;;4884972;28;100465;-80
2023/04/16 14:04:07;;;;;;;17.40;8.88;;;;;;;;;;4885785;28;99042;-80
2023/04/16 14:06:33;;;;;;;22.42;9.43;;;;;;;;;;4885713;28;99896;-80
2023/04/16 14:09:00;;;;;;;18.13;9.13;;;;;;;;;;4885761;28;100432;-80
2023/04/16 14:11:27;;;;;;;16.85;9.25;;;;;;;;;;4886224;28;99903;-81
2023/04/16 14:13:53;;;;;;;15.68;8.82;;;;;;;;;;4885096;28;99941;-80
2023/04/16 14:16:20;;;;;;;19.88;10.68;;;;;;;;;;4887429;28;100624;-80
2023/04/16 14:18:46;;;;;;;19.42;8.88;;;;;;;;;;4891880;28;99157;-80